Nearby METAR Reports

 

KIND - Indianapolis, Indiana, USA
Distance from station: SW 6mi, 9km
Updated: Nov 21 2019 1:54am
Overcast
Overcast
 Wind from SSE
Wind: SSE 5 mph , 7 km/h
Temperature: 39°F , 4°C
Wind Chill: 35°F , 2°C
Dew Point: 37°F , 3°C
Humidity: 93%
Barometer: 30.14 inHg , 1020.7 hPa
Clouds: Overcast
Visibility: 9 miles , 14 km
Cloud details: Overcast 20000 ft
2019/11/21 06:54 KIND 210654Z 15004KT 9SM OVC200 04/03 A3014 RMK AO2 SLP211 T00440028
KEYE - Indianapolis, Indiana, USA
Distance from station: NW 5mi, 8km
Updated: Nov 21 2019 1:53am
Clear
Clear
 Wind from SSE
Wind: SSE 6 mph , 9 km/h
Temperature: 41°F , 5°C
Wind Chill: 37°F , 3°C
Dew Point: 37°F , 3°C
Humidity: 87%
Barometer: 30.14 inHg , 1020.7 hPa
Clouds: Clear
Visibility: 10 miles , 16 km
2019/11/21 06:53 KEYE 210653Z AUTO 16005KT 10SM CLR 05/03 A3014 RMK AO2 SLP210 T00500028
 
KTYQ - Indianapolis Exc, Indiana, USA
Distance from station: N 17mi, 28km
Updated: Nov 21 2019 1:55am
Clear
Clear
 Wind from SSE
Wind: SSE 12 mph , 19 km/h
Temperature: 39°F , 4°C
Wind Chill: 32°F , 0°C
Dew Point: 39°F , 4°C
Humidity: 100%
Barometer: 30.14 inHg , 1020.7 hPa
Clouds: Clear
Visibility: 10 miles , 16 km
2019/11/21 06:55 KTYQ 210655Z AUTO 16010KT 10SM CLR 04/04 A3014 RMK AO2 T00430043
KGEZ - Shelbyville, Indiana, USA
Distance from station: ESE 27mi, 43km
Updated: Nov 21 2019 1:53am
Clear
Clear
 Wind from SSE
Wind: SSE 9 mph , 15 km/h
Temperature: 43°F , 6°C
Wind Chill: 38°F , 3°C
Dew Point: 37°F , 3°C
Humidity: 81%
Barometer: 30.16 inHg , 1021.3 hPa
Clouds: Clear
Visibility: 10 miles , 16 km
2019/11/21 06:53 KGEZ 210653Z AUTO 16008KT 10SM CLR 06/03 A3016 RMK AO2 SLP215 T00560028
 
KAID - Anderson Municip, Indiana, USA
Distance from station: NE 40mi, 64km
Updated: Nov 21 2019 1:55am
Clear
Clear
 Wind from S
Wind: S 9 mph , 15 km/h
Temperature: 41°F , 5°C
Wind Chill: 35°F , 2°C
Dew Point: 37°F , 3°C
Humidity: 87%
Barometer: 30.16 inHg , 1021.3 hPa
Clouds: Clear
Visibility: 10 miles , 16 km
2019/11/21 06:55 KAID 210655Z AUTO 18008KT 10SM CLR 05/03 A3016 RMK AO2 T00500030
KBAK - Columbus/Balkala, Indiana, USA
Distance from station: SSE 40mi, 64km
Updated: Nov 20 2019 9:45pm
NOT Current
Clear
Clear
 Wind from SE
Wind: SE 3 mph , 6 km/h
Temperature: 37°F , 3°C
Dew Point: 36°F , 2°C
Humidity: 93%
Barometer: 30.24 inHg , 1024 hPa
Clouds: Clear
Visibility: 10 miles , 16 km
2019/11/21 02:45 KBAK 210245Z 13003KT 10SM SKC 03/02 A3024 RMK LAST
 
KBMG - Bloomington, Indiana, USA
Distance from station: SSW 48mi, 78km
Updated: Nov 21 2019 1:53am
Clear
Clear
 Wind from SE
Wind: SE 8 mph , 13 km/h
Temperature: 41°F , 5°C
Wind Chill: 36°F , 2°C
Dew Point: 37°F , 3°C
Humidity: 87%
Barometer: 30.15 inHg , 1021 hPa
Clouds: Clear
Visibility: 7 miles , 11 km
2019/11/21 06:53 KBMG 210653Z AUTO 14007KT 7SM CLR 05/03 A3015 RMK AO2 SLP213 T00500028
KOKK - Kokomo, Indiana, USA
Distance from station: N 53mi, 85km
Updated: Nov 21 2019 1:56am
Clear
Clear
 Wind from S
Wind: S 13 mph , 20 km/h
Temperature: 41°F , 5°C
Wind Chill: 34°F , 1°C
Dew Point: 39°F , 4°C
Humidity: 93%
Barometer: 30.13 inHg , 1020.3 hPa
Clouds: Clear
Visibility: 8 miles , 13 km
2019/11/21 06:56 KOKK 210656Z AUTO 18011KT 8SM CLR 05/04 A3013 RMK AO2 SLP208 T00500039